Time;durP1;ratioP1;P1;durP2;ratioP2;P2;SDS_P1;SDS_P2;PMS_P1;PMS_P2;Temp;Humidity;BMP_temperature;BMP_pressure;BME280_temperature;BME280_humidity;BME280_pressure;Samples;Min_cycle;Max_cycle;Signal;HPM_P1;HPM_P2
2021/06/14 00:01:52;;;;;;;5.97;2.00;;;13.30;99.90;;;;;;5308815;27;20121;-69
2021/06/14 00:04:19;;;;;;;4.73;2.00;;;13.30;99.90;;;;;;5308710;27;20225;-69
2021/06/14 00:06:46;;;;;;;6.60;2.00;;;13.20;99.90;;;;;;5310861;27;20134;-69
2021/06/14 00:09:17;;;;;;;4.03;2.13;;;13.20;99.90;;;;;;5311079;27;20165;-69
2021/06/14 00:11:44;;;;;;;6.73;2.20;;;13.10;99.90;;;;;;5310845;27;20124;-69
2021/06/14 00:14:11;;;;;;;5.27;2.50;;;13.20;99.90;;;;;;5310143;27;20194;-69
2021/06/14 00:16:38;;;;;;;5.57;2.40;;;13.10;99.90;;;;;;5308854;27;20110;-69
2021/06/14 00:19:07;;;;;;;8.57;2.23;;;13.00;99.90;;;;;;5310702;27;20137;-70
2021/06/14 00:21:36;;;;;;;6.10;2.27;;;12.90;99.90;;;;;;5310558;27;20118;-69
2021/06/14 00:24:04;;;;;;;7.57;2.20;;;13.00;99.90;;;;;;5310703;27;20151;-69
2021/06/14 00:26:31;;;;;;;5.83;2.00;;;12.90;99.90;;;;;;5310681;27;20110;-69
2021/06/14 00:28:58;;;;;;;6.57;2.00;;;12.90;99.90;;;;;;5311029;27;20199;-69
2021/06/14 00:31:25;;;;;;;5.20;2.07;;;12.90;99.90;;;;;;5310700;27;20124;-69
2021/06/14 00:33:52;;;;;;;6.60;2.20;;;12.80;99.90;;;;;;5310672;27;20148;-69
2021/06/14 00:36:19;;;;;;;6.57;2.17;;;12.70;99.90;;;;;;5308646;27;20156;-69
2021/06/14 00:38:46;;;;;;;3.77;2.00;;;12.70;99.90;;;;;;5308446;27;20107;-69
2021/06/14 00:41:13;;;;;;;7.47;2.03;;;12.70;99.90;;;;;;5309743;27;20165;-69
2021/06/14 00:43:40;;;;;;;5.83;2.10;;;12.60;99.90;;;;;;5310572;27;20145;-69
2021/06/14 00:46:07;;;;;;;5.73;2.00;;;12.60;99.90;;;;;;5310569;27;20320;-69
2021/06/14 00:48:34;;;;;;;4.63;2.40;;;12.60;99.90;;;;;;5309780;27;20140;-69
2021/06/14 00:51:07;;;;;;;3.90;1.97;;;12.60;99.90;;;;;;5308441;27;20110;-69
2021/06/14 00:53:36;;;;;;;5.30;2.20;;;12.50;99.90;;;;;;5308436;27;20114;-69
2021/06/14 00:56:09;;;;;;;6.00;2.10;;;12.60;99.90;;;;;;5310441;27;20148;-69
2021/06/14 00:58:38;;;;;;;6.73;2.20;;;12.60;99.90;;;;;;5310315;27;20428;-69
2021/06/14 01:01:07;;;;;;;5.17;2.40;;;12.50;99.90;;;;;;5308152;27;20427;-69
2021/06/14 01:03:35;;;;;;;5.60;1.97;;;12.50;99.90;;;;;;5308087;27;20168;-69
2021/06/14 01:06:08;;;;;;;5.47;2.30;;;12.50;99.90;;;;;;5310653;27;20111;-69
2021/06/14 01:08:39;;;;;;;6.07;2.53;;;12.50;99.90;;;;;;5310355;27;20114;-69
2021/06/14 01:11:30;;;;;;;5.87;2.20;;;12.50;99.90;;;;;;5308961;27;20166;-69
2021/06/14 01:14:13;;;;;;;6.17;2.07;;;12.50;99.90;;;;;;5310428;27;20154;-69
2021/06/14 01:16:58;;;;;;;8.20;2.20;;;12.40;99.90;;;;;;5310391;27;20373;-69
2021/06/14 01:20:04;;;;;;;6.27;1.93;;;12.40;99.90;;;;;;5310457;27;20132;-69
2021/06/14 01:22:53;;;;;;;8.53;2.33;;;12.40;99.90;;;;;;5310555;27;20152;-69
2021/06/14 01:25:29;;;;;;;4.80;2.03;;;12.40;99.90;;;;;;5310788;27;20157;-69
2021/06/14 01:27:58;;;;;;;7.70;2.30;;;12.40;99.90;;;;;;5308101;27;20128;-69
2021/06/14 01:30:35;;;;;;;9.17;2.30;;;12.40;99.90;;;;;;5310216;27;20385;-69
2021/06/14 01:33:05;;;;;;;8.13;2.27;;;12.40;99.90;;;;;;5310160;27;20113;-69
2021/06/14 01:35:50;;;;;;;7.53;2.10;;;12.40;99.90;;;;;;5308075;27;20165;-69
2021/06/14 01:38:19;;;;;;;11.70;2.43;;;12.30;99.90;;;;;;5310110;27;20408;-69
2021/06/14 01:40:49;;;;;;;7.90;2.20;;;12.30;99.90;;;;;;5310032;27;20145;-69
2021/06/14 01:43:19;;;;;;;5.57;2.10;;;12.40;99.90;;;;;;5310072;27;20109;-69
2021/06/14 01:45:54;;;;;;;4.60;2.30;;;12.30;99.90;;;;;;5306538;27;20471;-69
2021/06/14 01:48:23;;;;;;;6.23;2.03;;;12.40;99.90;;;;;;5310074;27;20157;-69
2021/06/14 01:50:51;;;;;;;8.67;2.10;;;12.30;99.90;;;;;;5310100;27;20297;-69
2021/06/14 01:53:18;;;;;;;5.33;2.00;;;12.30;99.90;;;;;;5307959;27;20150;-69
2021/06/14 01:55:47;;;;;;;7.40;2.50;;;12.40;99.90;;;;;;5307926;27;20362;-69
2021/06/14 01:58:16;;;;;;;6.10;2.33;;;12.30;99.90;;;;;;5308009;27;20110;-69
2021/06/14 02:00:44;;;;;;;8.33;2.30;;;12.40;99.90;;;;;;5309057;27;20167;-69
2021/06/14 02:03:14;;;;;;;7.27;2.20;;;12.30;99.90;;;;;;5309018;27;20146;-69
2021/06/14 02:05:42;;;;;;;4.63;2.10;;;12.30;99.90;;;;;;5308738;27;20140;-69
2021/06/14 02:08:11;;;;;;;6.37;2.23;;;12.30;99.90;;;;;;5310032;27;20114;-69
2021/06/14 02:10:39;;;;;;;6.53;2.50;;;12.30;99.90;;;;;;5310123;27;20117;-69
2021/06/14 02:13:07;;;;;;;5.73;2.07;;;12.30;99.90;;;;;;5308716;27;20338;-69
2021/06/14 02:15:34;;;;;;;5.03;2.17;;;12.40;99.90;;;;;;5308296;27;20114;-69
2021/06/14 02:18:02;;;;;;;8.03;2.40;;;12.30;99.90;;;;;;5307954;27;20149;-69
2021/06/14 02:20:30;;;;;;;5.17;2.13;;;12.30;99.90;;;;;;5309965;27;20121;-69
2021/06/14 02:22:56;;;;;;;7.50;2.40;;;12.30;99.90;;;;;;5307785;27;20155;-69
2021/06/14 02:25:24;;;;;;;6.90;2.13;;;12.20;99.90;;;;;;5310011;27;20110;-69
2021/06/14 02:27:52;;;;;;;5.57;2.20;;;12.20;99.90;;;;;;5307638;27;20485;-70
2021/06/14 02:30:25;;;;;;;5.73;2.40;;;12.20;99.90;;;;;;5307625;27;20432;-69
2021/06/14 02:32:53;;;;;;;8.23;2.40;;;12.20;99.90;;;;;;5309865;27;20147;-69
2021/06/14 02:35:22;;;;;;;5.80;2.10;;;12.30;99.90;;;;;;5307157;27;20424;-69
2021/06/14 02:37:53;;;;;;;5.33;2.43;;;12.30;99.90;;;;;;5309849;27;20125;-69
2021/06/14 02:40:25;;;;;;;6.97;2.17;;;12.40;99.90;;;;;;5309800;27;20284;-69
2021/06/14 02:42:53;;;;;;;8.90;2.30;;;12.40;99.90;;;;;;5307701;27;20364;-69
2021/06/14 02:45:24;;;;;;;6.03;2.70;;;12.30;99.90;;;;;;5307752;27;20113;-69
2021/06/14 02:47:52;;;;;;;6.63;2.23;;;12.30;99.90;;;;;;5309858;27;20433;-69
2021/06/14 02:50:20;;;;;;;6.93;2.30;;;12.30;99.90;;;;;;5306788;27;20444;-69
2021/06/14 02:52:50;;;;;;;7.77;2.30;;;12.30;99.90;;;;;;5310472;27;20344;-69
2021/06/14 02:55:25;;;;;;;8.20;2.30;;;12.30;99.90;;;;;;5310235;27;20110;-69
2021/06/14 02:57:55;;;;;;;7.30;2.50;;;12.40;99.90;;;;;;5309799;27;20167;-69
2021/06/14 03:00:25;;;;;;;6.97;2.30;;;12.40;99.90;;;;;;5307734;27;20122;-69
2021/06/14 03:02:57;;;;;;;7.73;2.20;;;12.50;99.90;;;;;;5309196;27;20157;-70
2021/06/14 03:05:25;;;;;;;6.53;2.30;;;12.50;99.90;;;;;;5306894;27;20130;-69
2021/06/14 03:07:57;;;;;;;10.73;2.50;;;12.50;99.90;;;;;;5309754;27;20151;-70
2021/06/14 03:10:28;;;;;;;6.47;2.30;;;12.50;99.90;;;;;;5310014;27;20165;-69
2021/06/14 03:12:56;;;;;;;6.07;2.93;;;12.50;99.90;;;;;;5309246;27;20118;-69
2021/06/14 03:15:26;;;;;;;4.50;2.20;;;12.50;99.90;;;;;;5310795;27;20475;-69
2021/06/14 03:17:53;;;;;;;8.10;2.43;;;12.60;99.90;;;;;;5308851;27;20412;-69
2021/06/14 03:20:24;;;;;;;7.93;2.53;;;12.60;99.90;;;;;;5308660;27;20180;-69
2021/06/14 03:22:51;;;;;;;10.57;2.60;;;12.70;99.90;;;;;;5309825;27;20137;-69
2021/06/14 03:25:19;;;;;;;8.57;2.43;;;12.60;99.90;;;;;;5310970;27;20110;-69
2021/06/14 03:27:47;;;;;;;7.90;2.30;;;12.70;99.90;;;;;;5311068;27;20114;-69
2021/06/14 03:30:14;;;;;;;8.37;2.67;;;12.80;99.90;;;;;;5308911;27;20159;-69
2021/06/14 03:32:44;;;;;;;8.27;2.60;;;12.80;99.90;;;;;;5311023;27;20542;-69
2021/06/14 03:35:18;;;;;;;5.03;2.50;;;12.80;99.90;;;;;;5308917;27;20222;-69
2021/06/14 03:37:46;;;;;;;6.63;2.73;;;12.80;99.90;;;;;;5311008;27;20374;-69
2021/06/14 03:40:14;;;;;;;7.50;2.93;;;12.80;99.90;;;;;;5308707;27;20162;-69
2021/06/14 03:42:41;;;;;;;6.27;2.40;;;12.70;99.90;;;;;;5310934;27;20137;-69
2021/06/14 03:45:10;;;;;;;6.80;2.87;;;12.70;99.90;;;;;;5308668;27;20113;-69
2021/06/14 03:47:38;;;;;;;8.57;2.80;;;12.70;99.90;;;;;;5310830;27;20110;-69
2021/06/14 03:50:07;;;;;;;8.77;2.60;;;12.80;99.90;;;;;;5310049;27;20114;-69
2021/06/14 03:52:36;;;;;;;6.73;2.93;;;12.80;99.90;;;;;;5310931;27;20110;-69
2021/06/14 03:55:04;;;;;;;7.77;2.63;;;12.80;99.90;;;;;;5311077;27;20153;-71
2021/06/14 03:57:31;;;;;;;8.47;2.77;;;12.90;99.90;;;;;;5310247;27;20230;-69
2021/06/14 03:59:58;;;;;;;7.10;2.67;;;12.90;99.90;;;;;;5308661;27;20161;-69
2021/06/14 04:02:25;;;;;;;6.63;2.40;;;13.00;99.90;;;;;;5308377;27;20326;-69
2021/06/14 04:04:56;;;;;;;6.60;2.80;;;13.10;99.90;;;;;;5307752;27;20495;-70
2021/06/14 04:07:22;;;;;;;7.37;2.60;;;13.10;99.90;;;;;;5308721;27;20114;-71
2021/06/14 04:09:50;;;;;;;5.77;2.83;;;13.20;99.90;;;;;;5308519;27;20167;-71
2021/06/14 04:12:18;;;;;;;6.00;2.40;;;13.20;99.90;;;;;;5310825;27;20113;-71
2021/06/14 04:14:45;;;;;;;6.40;2.23;;;13.30;99.90;;;;;;5310901;27;20508;-71
2021/06/14 04:17:12;;;;;;;7.10;2.37;;;13.30;99.90;;;;;;5310551;27;20125;-70
2021/06/14 04:19:40;;;;;;;5.83;2.43;;;13.40;99.90;;;;;;5310619;27;20133;-71
2021/06/14 04:22:07;;;;;;;9.70;2.77;;;13.40;99.90;;;;;;5310651;27;20133;-71
2021/06/14 04:24:34;;;;;;;7.27;2.40;;;13.50;99.90;;;;;;5310382;27;20147;-70
2021/06/14 04:27:01;;;;;;;8.67;2.60;;;13.50;99.90;;;;;;5310929;27;20169;-70
2021/06/14 04:29:28;;;;;;;8.20;2.23;;;13.60;99.90;;;;;;5310201;27;20114;-70
2021/06/14 04:31:55;;;;;;;7.53;2.60;;;13.60;99.90;;;;;;5308594;27;20139;-71
2021/06/14 04:34:22;;;;;;;7.33;2.20;;;13.70;99.90;;;;;;5310343;27;20170;-71
2021/06/14 04:36:49;;;;;;;6.47;2.70;;;13.60;99.90;;;;;;5308312;27;20114;-70
2021/06/14 04:39:16;;;;;;;7.23;2.27;;;13.70;99.90;;;;;;5310866;27;20155;-71
2021/06/14 04:41:43;;;;;;;6.93;2.30;;;13.80;99.90;;;;;;5310656;27;20125;-70
2021/06/14 04:44:11;;;;;;;7.50;2.50;;;13.80;99.90;;;;;;5310768;27;20415;-70
2021/06/14 04:46:38;;;;;;;6.60;2.47;;;13.80;99.90;;;;;;5309847;27;20129;-70
2021/06/14 04:49:05;;;;;;;8.50;2.47;;;13.90;99.90;;;;;;5310783;27;20137;-70
2021/06/14 04:51:32;;;;;;;7.97;2.20;;;14.00;99.90;;;;;;5310798;27;20120;-70
2021/06/14 04:53:59;;;;;;;5.07;2.20;;;14.20;99.90;;;;;;5308256;27;20114;-71
2021/06/14 04:56:26;;;;;;;5.80;2.10;;;14.10;99.90;;;;;;5308268;27;20109;-73
2021/06/14 04:58:53;;;;;;;7.63;2.10;;;14.20;99.90;;;;;;5308090;27;20340;-70
2021/06/14 05:01:20;;;;;;;9.77;2.40;;;14.30;99.90;;;;;;5307965;27;20121;-71
2021/06/14 05:03:47;;;;;;;6.67;2.10;;;14.30;99.90;;;;;;5307840;27;20140;-73
2021/06/14 05:06:14;;;;;;;6.83;2.27;;;14.40;99.90;;;;;;5310495;27;20416;-72
2021/06/14 05:08:41;;;;;;;6.93;2.07;;;14.40;99.90;;;;;;5310418;27;20140;-72
2021/06/14 05:11:08;;;;;;;5.60;2.17;;;14.40;99.90;;;;;;5307702;27;20336;-72
2021/06/14 05:13:35;;;;;;;5.53;1.90;;;14.40;99.90;;;;;;5310366;27;20117;-73
2021/06/14 05:16:01;;;;;;;6.87;2.17;;;14.40;99.90;;;;;;5307968;27;20176;-72
2021/06/14 05:18:28;;;;;;;4.60;2.07;;;14.40;99.90;;;;;;5310010;27;20117;-73
2021/06/14 05:20:55;;;;;;;6.70;1.90;;;14.50;99.90;;;;;;5310049;27;20124;-73
2021/06/14 05:23:22;;;;;;;7.27;2.17;;;14.50;99.90;;;;;;5308062;27;20160;-73
2021/06/14 05:25:49;;;;;;;4.07;1.97;;;14.50;99.90;;;;;;5308094;27;20163;-73
2021/06/14 05:28:16;;;;;;;5.03;1.80;;;14.50;99.90;;;;;;5311047;27;20488;-73
2021/06/14 05:30:43;;;;;;;5.03;1.70;;;14.60;99.90;;;;;;5308191;27;20157;-73
2021/06/14 05:33:10;;;;;;;3.90;1.90;;;14.60;99.90;;;;;;5310058;27;20109;-73
2021/06/14 05:35:37;;;;;;;5.17;2.03;;;14.70;99.90;;;;;;5309955;27;20114;-73
2021/06/14 05:38:04;;;;;;;6.80;2.17;;;14.90;99.90;;;;;;5307834;27;20471;-73
2021/06/14 05:40:31;;;;;;;4.10;1.70;;;14.90;99.90;;;;;;5310455;27;20152;-73
2021/06/14 05:43:00;;;;;;;4.93;1.90;;;15.00;99.90;;;;;;5310405;27;20404;-73
2021/06/14 05:45:27;;;;;;;3.27;1.77;;;15.10;99.90;;;;;;5308088;27;20152;-72
2021/06/14 05:47:54;;;;;;;4.77;1.90;;;15.10;99.90;;;;;;5307767;27;20135;-73
2021/06/14 05:50:21;;;;;;;4.17;1.50;;;15.10;99.90;;;;;;5309926;27;20131;-73
2021/06/14 05:52:47;;;;;;;5.23;1.70;;;15.20;99.90;;;;;;5308076;27;20351;-73
2021/06/14 05:55:14;;;;;;;3.27;1.47;;;15.20;99.90;;;;;;5307155;27;20375;-72
2021/06/14 05:57:41;;;;;;;4.17;1.60;;;15.20;99.90;;;;;;5309966;27;20147;-72
2021/06/14 06:00:10;;;;;;;3.00;1.50;;;15.30;99.90;;;;;;5308995;27;20161;-73
2021/06/14 06:02:37;;;;;;;3.37;1.60;;;15.40;99.90;;;;;;5307693;27;20149;-73
2021/06/14 06:05:06;;;;;;;4.30;1.80;;;15.50;99.90;;;;;;5307226;27;20168;-73
2021/06/14 06:07:36;;;;;;;3.73;1.40;;;15.50;99.90;;;;;;5307893;27;20163;-73
2021/06/14 06:10:06;;;;;;;3.20;1.40;;;15.60;99.90;;;;;;5309315;27;20112;-73
2021/06/14 06:12:33;;;;;;;3.73;1.40;;;15.70;99.90;;;;;;5307685;27;20345;-73
2021/06/14 06:15:01;;;;;;;4.37;1.50;;;15.80;99.90;;;;;;5308936;27;20114;-73
2021/06/14 06:17:30;;;;;;;7.70;1.70;;;15.80;99.90;;;;;;5306979;27;20110;-73
2021/06/14 06:19:57;;;;;;;3.00;1.50;;;15.90;99.90;;;;;;5309683;27;20109;-72
2021/06/14 06:22:24;;;;;;;2.60;1.23;;;16.00;99.90;;;;;;5309748;27;20117;-72
2021/06/14 06:24:51;;;;;;;2.17;1.30;;;16.10;99.90;;;;;;5309506;27;20138;-72
2021/06/14 06:27:18;;;;;;;3.67;1.30;;;16.20;99.90;;;;;;5307367;27;20117;-73
2021/06/14 06:29:45;;;;;;;2.97;1.50;;;16.20;99.90;;;;;;5307790;27;20109;-72
2021/06/14 06:32:12;;;;;;;2.80;1.47;;;16.20;99.90;;;;;;5309782;27;20159;-72
2021/06/14 06:34:39;;;;;;;3.07;1.20;;;16.30;99.90;;;;;;5307493;27;20154;-72
2021/06/14 06:37:06;;;;;;;2.40;1.10;;;16.40;99.90;;;;;;5309885;27;20458;-74
2021/06/14 06:58:04;;;;;;;4.07;1.27;;;16.50;99.90;;;;;;4452830;32;20276;-73
2021/06/14 07:00:31;;;;;;;3.60;1.10;;;17.20;99.90;;;;;;4453647;32;20191;-72
2021/06/14 07:02:59;;;;;;;2.27;1.27;;;17.50;99.90;;;;;;4451996;32;20187;-72
2021/06/14 07:05:36;;;;;;;2.43;1.20;;;17.30;99.90;;;;;;4452442;32;20150;-72
2021/06/14 07:20:13;;;;;;;1.83;1.10;;;17.30;99.90;;;;;;4451211;32;20212;-73
2021/06/14 07:22:41;;;;;;;2.27;1.10;;;17.90;98.00;;;;;;4452767;32;20161;-72
2021/06/14 07:25:09;;;;;;;1.90;1.10;;;18.00;97.90;;;;;;4452429;32;20185;-73
2021/06/14 07:27:37;;;;;;;3.73;1.40;;;17.90;99.30;;;;;;4453670;32;20397;-72
2021/06/14 07:30:19;;;;;;;5.27;1.23;;;18.00;97.80;;;;;;4453831;32;20143;-72
2021/06/14 07:32:46;;;;;;;4.70;1.07;;;17.90;96.40;;;;;;4452032;32;20438;-73
2021/06/14 07:35:13;;;;;;;2.27;1.03;;;17.90;94.80;;;;;;4451689;32;20154;-73
2021/06/14 07:37:40;;;;;;;3.97;1.00;;;17.90;95.10;;;;;;4453300;32;20135;-73
2021/06/14 07:40:09;;;;;;;2.00;1.00;;;18.10;96.00;;;;;;4453349;32;20191;-72
2021/06/14 07:42:36;;;;;;;1.33;0.93;;;18.10;94.90;;;;;;4453210;32;20437;-73
2021/06/14 07:45:04;;;;;;;1.37;1.10;;;18.20;94.80;;;;;;4451881;32;20204;-73
2021/06/14 07:47:31;;;;;;;2.33;1.10;;;18.20;93.90;;;;;;4451840;32;20468;-73
2021/06/14 07:49:57;;;;;;;2.30;0.90;;;18.20;92.30;;;;;;4451840;32;20464;-73
2021/06/14 07:52:24;;;;;;;3.17;1.37;;;18.30;91.70;;;;;;4451487;32;20236;-73
2021/06/14 07:54:53;;;;;;;2.67;1.20;;;18.40;92.40;;;;;;4453314;32;20165;-72
2021/06/14 07:57:20;;;;;;;2.50;1.13;;;18.30;92.00;;;;;;4451715;32;20191;-72
2021/06/14 07:59:46;;;;;;;1.87;1.10;;;18.30;91.60;;;;;;4453480;32;20183;-72
2021/06/14 08:02:13;;;;;;;3.53;1.20;;;18.40;92.00;;;;;;4449527;32;20154;-72
2021/06/14 08:04:40;;;;;;;1.37;1.10;;;18.40;91.70;;;;;;4437641;32;20162;-72
2021/06/14 08:07:07;;;;;;;2.40;1.20;;;18.40;91.50;;;;;;4436200;32;20447;-72
2021/06/14 08:09:35;;;;;;;1.53;1.10;;;18.40;91.60;;;;;;4436013;32;20223;-72
2021/06/14 08:12:03;;;;;;;4.53;1.40;;;18.50;93.20;;;;;;4437570;32;20138;-74
2021/06/14 08:14:31;;;;;;;3.20;1.10;;;18.70;91.30;;;;;;4437465;32;20199;-71
2021/06/14 08:17:00;;;;;;;1.80;1.00;;;18.60;91.60;;;;;;4435988;32;20537;-71
2021/06/14 08:19:36;;;;;;;2.93;1.00;;;18.70;92.30;;;;;;4432828;32;20369;-72
2021/06/14 08:27:22;;;;;;;2.00;1.17;;;19.70;90.00;;;;;;4425531;32;20180;-71
2021/06/14 08:29:50;;;;;;;3.67;1.20;;;20.70;85.20;;;;;;4425336;32;20231;-70
2021/06/14 08:32:18;;;;;;;3.73;1.10;;;21.40;80.50;;;;;;4426878;32;20200;-71
2021/06/14 08:34:45;;;;;;;1.13;1.00;;;22.10;78.80;;;;;;4425959;32;20156;-70
2021/06/14 08:37:12;;;;;;;3.03;1.00;;;22.40;73.20;;;;;;4426928;32;20188;-70
2021/06/14 08:39:39;;;;;;;2.20;0.98;;;22.70;69.50;;;;;;4425513;32;20482;-70
2021/06/14 08:42:06;;;;;;;4.15;1.08;;;23.20;67.40;;;;;;4425521;32;20409;-69
2021/06/14 08:44:34;;;;;;;2.85;1.10;;;23.20;66.60;;;;;;4434079;32;20194;-70
2021/06/14 08:47:03;;;;;;;2.65;1.20;;;23.50;64.80;;;;;;4425498;32;20227;-70
2021/06/14 08:49:31;;;;;;;3.08;1.15;;;23.80;63.60;;;;;;4427058;32;20146;-70
2021/06/14 08:51:59;;;;;;;2.65;0.95;;;23.70;61.40;;;;;;4425188;32;20457;-70
2021/06/14 08:54:27;;;;;;;1.92;1.00;;;23.90;61.20;;;;;;4426056;32;20138;-69
2021/06/14 08:56:54;;;;;;;2.53;1.02;;;24.30;61.30;;;;;;4426969;32;20480;-70
2021/06/14 08:59:22;;;;;;;1.85;1.00;;;24.60;58.50;;;;;;4426423;32;20139;-70
2021/06/14 09:01:49;;;;;;;2.15;1.17;;;24.70;58.80;;;;;;4425027;32;20154;-70
2021/06/14 09:04:17;;;;;;;2.80;1.10;;;24.70;56.80;;;;;;4424815;32;20215;-69
2021/06/14 09:06:43;;;;;;;2.85;1.23;;;24.80;57.40;;;;;;4423771;32;20171;-70
2021/06/14 09:09:10;;;;;;;6.03;1.20;;;24.50;56.20;;;;;;4425938;32;20222;-70
2021/06/14 09:11:46;;;;;;;1.87;1.08;;;24.30;57.50;;;;;;4425687;32;20456;-71
2021/06/14 09:14:16;;;;;;;1.85;1.08;;;24.30;58.20;;;;;;4424909;32;20231;-71
2021/06/14 09:16:43;;;;;;;2.25;1.30;;;24.80;56.60;;;;;;4426274;32;20202;-70
2021/06/14 09:19:30;;;;;;;2.85;1.10;;;25.00;55.40;;;;;;4432331;32;20207;-70
2021/06/14 09:22:12;;;;;;;2.85;1.08;;;25.10;55.60;;;;;;4426401;32;20235;-71
2021/06/14 09:24:39;;;;;;;1.75;1.23;;;25.30;56.90;;;;;;4426193;32;20143;-72
2021/06/14 09:27:06;;;;;;;2.20;1.15;;;25.70;55.80;;;;;;4425972;32;20461;-71
2021/06/14 09:29:46;;;;;;;2.53;1.10;;;25.50;54.70;;;;;;4426027;32;20185;-72
2021/06/14 09:32:13;;;;;;;3.45;1.20;;;25.60;54.40;;;;;;4424160;32;20182;-71
2021/06/14 09:34:46;;;;;;;4.00;1.15;;;25.80;54.10;;;;;;4424241;32;20195;-71
2021/06/14 09:37:16;;;;;;;3.85;1.15;;;25.60;54.90;;;;;;4425760;32;20161;-70
2021/06/14 09:39:45;;;;;;;2.08;1.10;;;25.80;54.60;;;;;;4426021;32;20211;-71
2021/06/14 09:42:16;;;;;;;1.85;1.30;;;26.10;54.00;;;;;;4424915;32;20403;-72
2021/06/14 09:44:43;;;;;;;3.08;1.40;;;26.10;53.80;;;;;;4426508;32;20619;-71
2021/06/14 09:47:12;;;;;;;3.20;1.45;;;26.00;53.40;;;;;;4425227;32;20482;-70
2021/06/14 09:49:40;;;;;;;1.58;1.20;;;26.10;53.80;;;;;;4426353;32;20146;-72
2021/06/14 09:52:20;;;;;;;3.20;1.30;;;26.20;52.60;;;;;;4424123;32;20182;-72
2021/06/14 09:54:47;;;;;;;3.92;1.20;;;25.70;51.70;;;;;;4422346;32;20151;-72
2021/06/14 09:57:24;;;;;;;3.83;1.50;;;25.60;52.60;;;;;;4421335;32;20204;-72
2021/06/14 09:59:51;;;;;;;1.77;1.30;;;25.90;54.90;;;;;;4420156;32;20531;-72
2021/06/14 10:02:18;;;;;;;2.90;1.20;;;26.40;53.80;;;;;;4420249;32;20449;-71
2021/06/14 10:04:47;;;;;;;1.87;1.17;;;27.00;53.40;;;;;;4422713;32;20365;-71
2021/06/14 10:07:16;;;;;;;2.40;1.02;;;27.20;51.10;;;;;;4422667;32;20572;-73
2021/06/14 10:09:49;;;;;;;1.73;1.10;;;27.20;51.40;;;;;;4422049;32;20401;-72
2021/06/14 10:12:27;;;;;;;1.52;1.25;;;26.70;50.60;;;;;;4426099;32;20135;-71
2021/06/14 10:14:56;;;;;;;2.37;1.23;;;26.40;51.80;;;;;;4426035;32;20460;-72
2021/06/14 10:17:35;;;;;;;7.68;1.80;;;26.40;52.30;;;;;;4424118;32;20201;-72
2021/06/14 10:20:21;;;;;;;1.90;1.12;;;26.60;53.30;;;;;;4425461;32;20150;-71
2021/06/14 10:22:53;;;;;;;2.62;1.20;;;26.60;51.20;;;;;;4425584;32;20135;-71
2021/06/14 10:25:37;;;;;;;2.85;1.27;;;26.60;51.10;;;;;;4425406;32;20360;-71
2021/06/14 10:28:06;;;;;;;4.25;1.10;;;26.50;50.10;;;;;;4423948;32;20155;-71
2021/06/14 10:30:34;;;;;;;3.05;1.23;;;26.70;52.30;;;;;;4425405;32;20363;-71
2021/06/14 10:33:04;;;;;;;2.17;1.20;;;27.50;51.70;;;;;;4425291;32;20159;-72
2021/06/14 10:35:33;;;;;;;3.45;1.20;;;27.90;49.30;;;;;;4425403;32;20353;-72
2021/06/14 10:38:03;;;;;;;1.55;1.08;;;28.40;48.40;;;;;;4423901;32;20239;-71
2021/06/14 10:40:33;;;;;;;2.60;1.25;;;28.70;47.60;;;;;;4425428;32;20161;-71
2021/06/14 10:43:01;;;;;;;2.60;1.20;;;28.30;47.50;;;;;;4423653;32;20183;-71
2021/06/14 10:45:30;;;;;;;1.30;1.00;;;27.80;49.20;;;;;;4423782;32;20135;-71
2021/06/14 10:47:58;;;;;;;2.97;1.10;;;27.70;48.90;;;;;;4423886;32;20144;-69
2021/06/14 10:50:30;;;;;;;2.35;1.20;;;27.60;48.40;;;;;;4424699;32;20480;-69
2021/06/14 10:52:57;;;;;;;1.98;1.20;;;27.40;47.00;;;;;;4425053;32;20148;-69
2021/06/14 10:55:28;;;;;;;1.75;0.90;;;27.30;47.50;;;;;;4424036;32;20150;-71
2021/06/14 10:57:55;;;;;;;3.10;1.00;;;28.00;48.00;;;;;;4423526;32;20139;-71
2021/06/14 11:00:32;;;;;;;3.00;1.10;;;28.30;47.60;;;;;;4422944;32;20193;-71
2021/06/14 11:03:02;;;;;;;2.95;1.20;;;28.10;47.40;;;;;;4424970;32;20147;-72
2021/06/14 11:05:46;;;;;;;1.00;0.90;;;28.00;46.60;;;;;;4424794;32;20161;-72
2021/06/14 11:08:20;;;;;;;1.75;1.00;;;28.40;47.90;;;;;;4425394;32;20236;-72
2021/06/14 11:11:00;;;;;;;2.00;1.10;;;28.80;46.60;;;;;;4424908;32;20424;-72
2021/06/14 11:13:27;;;;;;;2.03;1.00;;;29.10;46.10;;;;;;4423494;32;20157;-70
2021/06/14 11:16:01;;;;;;;2.87;1.05;;;29.20;44.80;;;;;;4424461;32;20188;-70
2021/06/14 11:18:30;;;;;;;2.45;1.05;;;29.60;46.10;;;;;;4424195;32;20218;-70
2021/06/14 11:21:19;;;;;;;2.83;0.90;;;29.90;43.80;;;;;;4424558;32;20165;-70
2021/06/14 11:23:49;;;;;;;2.40;1.10;;;29.50;44.00;;;;;;4423171;32;20147;-70
2021/06/14 11:26:27;;;;;;;2.58;1.10;;;29.70;44.50;;;;;;4424765;32;20533;-70
2021/06/14 11:28:55;;;;;;;1.52;1.30;;;30.10;44.60;;;;;;4424701;32;20198;-70
2021/06/14 11:31:26;;;;;;;4.20;2.05;;;30.30;44.20;;;;;;4423280;32;20135;-70
2021/06/14 11:33:55;;;;;;;3.08;1.08;;;30.60;43.30;;;;;;4425046;32;20226;-70
2021/06/14 11:36:28;;;;;;;1.77;0.90;;;30.40;43.10;;;;;;4424671;32;20272;-70
2021/06/14 11:38:57;;;;;;;2.20;1.12;;;30.60;43.50;;;;;;4423217;32;20484;-70
2021/06/14 11:41:29;;;;;;;3.35;1.10;;;30.80;41.70;;;;;;4424571;32;20174;-70
2021/06/14 11:44:30;;;;;;;1.30;0.90;;;30.60;41.40;;;;;;4423085;32;20157;-70
2021/06/14 11:47:10;;;;;;;1.27;0.88;;;30.60;41.90;;;;;;4423464;32;20180;-71
2021/06/14 11:49:37;;;;;;;3.12;1.05;;;30.90;42.30;;;;;;4424521;32;20189;-70
2021/06/14 11:52:29;;;;;;;2.72;0.98;;;30.80;41.10;;;;;;4423345;32;20212;-72
2021/06/14 11:54:58;;;;;;;1.98;1.00;;;31.10;41.50;;;;;;4425452;32;20400;-70
2021/06/14 11:57:30;;;;;;;3.28;1.08;;;31.00;40.90;;;;;;4425750;32;20203;-70
2021/06/14 11:59:57;;;;;;;2.70;1.00;;;31.30;40.30;;;;;;4425786;32;20165;-69
2021/06/14 12:02:27;;;;;;;2.15;0.85;;;31.30;41.50;;;;;;4426120;32;20213;-69
2021/06/14 12:04:56;;;;;;;1.60;1.02;;;30.70;41.30;;;;;;4427197;32;20174;-69
2021/06/14 12:07:33;;;;;;;1.87;1.00;;;30.90;41.80;;;;;;4425160;32;20463;-69
2021/06/14 12:10:03;;;;;;;3.20;1.12;;;30.90;42.10;;;;;;4425685;32;20181;-69
2021/06/14 12:12:31;;;;;;;3.12;0.90;;;31.30;41.00;;;;;;4427518;32;20205;-69
2021/06/14 12:14:58;;;;;;;1.70;1.00;;;31.10;41.60;;;;;;4425301;32;20192;-69
2021/06/14 12:17:31;;;;;;;1.70;1.10;;;30.90;41.00;;;;;;4426407;32;20169;-69
2021/06/14 12:19:59;;;;;;;4.72;1.00;;;31.60;41.90;;;;;;4425759;32;20469;-70
2021/06/14 12:22:28;;;;;;;2.80;1.10;;;32.00;40.50;;;;;;4426696;32;20280;-71
2021/06/14 12:25:04;;;;;;;2.33;1.10;;;32.10;39.80;;;;;;4427321;32;20230;-70
2021/06/14 12:27:31;;;;;;;1.85;1.00;;;32.20;39.50;;;;;;4426716;32;20196;-71
2021/06/14 12:30:00;;;;;;;3.78;1.02;;;32.40;39.40;;;;;;4425606;32;20173;-71
2021/06/14 12:32:32;;;;;;;2.03;0.80;;;32.80;38.80;;;;;;4425612;32;20131;-71
2021/06/14 12:35:02;;;;;;;2.90;0.90;;;32.90;37.90;;;;;;4425758;32;20161;-71
2021/06/14 12:37:29;;;;;;;2.97;1.00;;;32.80;37.40;;;;;;4426353;32;20155;-71
2021/06/14 12:40:09;;;;;;;1.52;1.10;;;32.80;39.10;;;;;;4426052;32;20139;-71
2021/06/14 12:42:37;;;;;;;2.45;0.90;;;32.50;37.70;;;;;;4425842;32;20147;-71
2021/06/14 12:45:17;;;;;;;4.40;0.90;;;32.30;38.20;;;;;;4425563;32;20178;-71
2021/06/14 12:47:49;;;;;;;2.45;0.82;;;32.50;39.00;;;;;;4426664;32;20207;-71
2021/06/14 12:50:22;;;;;;;2.78;1.00;;;32.70;39.80;;;;;;4425291;32;20217;-71
2021/06/14 12:52:51;;;;;;;1.52;0.82;;;32.40;38.10;;;;;;4426922;32;20143;-71
2021/06/14 12:55:23;;;;;;;2.15;0.88;;;32.90;39.40;;;;;;4425112;32;20135;-71
2021/06/14 12:57:56;;;;;;;1.30;0.90;;;32.80;37.80;;;;;;4425462;32;20471;-71
2021/06/14 13:00:29;;;;;;;2.50;1.00;;;32.40;37.50;;;;;;4426694;32;20214;-72
2021/06/14 13:02:58;;;;;;;2.37;0.90;;;32.10;37.70;;;;;;4426792;32;20184;-70
2021/06/14 13:05:31;;;;;;;3.60;0.90;;;31.30;39.40;;;;;;4425122;32;20138;-71
2021/06/14 13:08:06;;;;;;;3.28;1.60;;;30.80;39.90;;;;;;4425845;32;20142;-70
2021/06/14 13:10:44;;;;;;;1.87;1.10;;;30.60;41.10;;;;;;4426306;32;20412;-70
2021/06/14 13:13:22;;;;;;;1.92;1.00;;;31.10;41.70;;;;;;4426935;32;20170;-71
2021/06/14 13:16:05;;;;;;;1.67;1.00;;;31.20;41.40;;;;;;4426302;32;20142;-71
2021/06/14 13:18:34;;;;;;;2.45;1.50;;;32.00;40.00;;;;;;4424048;32;20196;-70
2021/06/14 13:21:17;;;;;;;1.70;0.80;;;31.70;39.50;;;;;;4425210;32;20468;-70
2021/06/14 13:23:48;;;;;;;3.30;0.98;;;31.30;38.90;;;;;;4426574;32;20162;-70
2021/06/14 13:26:16;;;;;;;2.42;1.00;;;30.60;39.00;;;;;;4425025;32;20469;-69
2021/06/14 13:28:43;;;;;;;1.77;0.95;;;30.70;39.90;;;;;;4424732;32;20135;-70
2021/06/14 13:31:15;;;;;;;0.93;0.82;;;31.00;40.00;;;;;;4423940;32;20151;-70
2021/06/14 13:34:07;;;;;;;2.97;1.00;;;31.40;39.90;;;;;;4426338;32;20213;-70
2021/06/14 13:36:37;;;;;;;2.05;1.10;;;31.20;39.10;;;;;;4424559;32;20166;-70